Time;durP1;ratioP1;P1;durP2;ratioP2;P2;SDS_P1;SDS_P2;PMS_P1;PMS_P2;Temp;Humidity;BMP_temperature;BMP_pressure;BME280_temperature;BME280_humidity;BME280_pressure;Samples;Min_cycle;Max_cycle;Signal;HPM_P1;HPM_P2
2023/01/16 00:22:58;;;;;;;2.20;1.00;;;7.90;99.60;;;;;;3228574;22;21538;31
2023/01/16 00:26:37;;;;;;;;;;;;;;;;;;;;;
2023/01/16 00:29:45;;;;;;;1.40;0.60;;;8.00;99.40;;;;;;4992327;28;20518;-85
2023/01/16 00:46:06;;;;;;;2.10;0.50;;;8.20;99.00;;;;;;4963665;28;20558;-86
2023/01/16 01:18:26;;;;;;;0.67;0.50;;;8.10;99.00;;;;;;5008626;28;20502;-86
2023/01/16 01:21:33;;;;;;;1.77;0.80;;;8.00;99.30;;;;;;5017917;28;21853;-85
2023/01/16 01:32:37;;;;;;;;;;;;;;;;;;;;;
2023/01/16 01:35:44;;;;;;;0.90;0.50;;;8.10;99.50;;;;;;4888121;29;20513;-87
2023/01/16 01:41:32;;;;;;;0.80;0.60;;;8.00;99.70;;;;;;4928011;29;20909;-87
2023/01/16 01:44:46;;;;;;;2.40;0.60;;;8.00;99.90;;;;;;4941381;28;20484;-86
2023/01/16 01:47:43;;;;;;;0.63;0.60;;;8.00;99.90;;;;;;4939489;28;20472;-83
2023/01/16 01:51:08;;;;;;;0.47;0.47;;;7.90;99.90;;;;;;4937998;28;20441;-88
2023/01/16 01:54:10;;;;;;;0.70;0.40;;;7.80;99.90;;;;;;5015513;28;20577;-88
2023/01/16 01:57:15;;;;;;;0.70;0.50;;;7.80;99.90;;;;;;4998620;28;20467;-86
2023/01/16 02:00:05;;;;;;;0.40;0.40;;;7.80;99.90;;;;;;5003733;28;20513;-86
2023/01/16 02:02:52;;;;;;;1.27;0.87;;;7.90;99.90;;;;;;4998744;28;20458;-87
2023/01/16 02:05:51;;;;;;;2.67;0.80;;;7.90;99.90;;;;;;4998993;28;20492;-84
2023/01/16 02:08:33;;;;;;;0.83;0.50;;;7.90;99.90;;;;;;4999056;28;20586;-87
2023/01/16 02:11:25;;;;;;;1.10;0.50;;;7.90;99.90;;;;;;4997521;28;20474;-85
2023/01/16 02:14:19;;;;;;;0.50;0.50;;;7.80;99.90;;;;;;5000945;28;20458;-87
2023/01/16 02:20:18;;;;;;;0.50;0.40;;;7.60;99.90;;;;;;5004536;28;20482;-86
2023/01/16 02:23:28;;;;;;;0.60;0.30;;;7.70;99.90;;;;;;5002290;28;20548;-87
2023/01/16 02:26:21;;;;;;;0.30;0.30;;;7.80;99.90;;;;;;5002897;28;20493;-86
2023/01/16 02:29:35;;;;;;;0.50;0.50;;;7.70;99.90;;;;;;5008559;28;20456;-85
2023/01/16 02:32:47;;;;;;;0.40;0.40;;;7.70;99.90;;;;;;5001807;28;20456;-86
2023/01/16 02:39:28;;;;;;;0.40;0.30;;;7.80;99.90;;;;;;4983799;28;20470;-85
2023/01/16 02:42:29;;;;;;;0.50;0.40;;;7.70;99.90;;;;;;5002383;28;20470;-87
2023/01/16 02:45:46;;;;;;;0.77;0.60;;;7.70;99.90;;;;;;4993269;28;22194;-85
2023/01/16 02:48:33;;;;;;;0.70;0.40;;;7.70;99.90;;;;;;5002437;28;20470;-89
2023/01/16 02:52:03;;;;;;;1.00;0.50;;;7.70;99.90;;;;;;5008996;28;20455;-87
2023/01/16 02:54:52;;;;;;;0.83;0.60;;;7.70;99.90;;;;;;5021463;28;20470;-85
2023/01/16 03:00:34;;;;;;;0.80;0.50;;;7.60;99.90;;;;;;5003914;28;20494;-85
2023/01/16 03:03:44;;;;;;;1.10;0.67;;;7.60;99.90;;;;;;5011146;28;20515;-87
2023/01/16 03:07:03;;;;;;;0.93;0.70;;;7.80;99.90;;;;;;4986110;28;20490;-85
2023/01/16 03:10:14;;;;;;;1.20;0.50;;;7.80;99.90;;;;;;4999970;28;20497;-87
2023/01/16 03:13:29;;;;;;;0.83;0.60;;;7.80;99.90;;;;;;5002015;28;20462;-86
2023/01/16 03:16:26;;;;;;;1.93;0.63;;;7.80;99.90;;;;;;5002478;28;20470;-88
2023/01/16 03:19:43;;;;;;;0.50;0.50;;;7.70;99.90;;;;;;5002566;28;20532;-86
2023/01/16 03:22:46;;;;;;;3.50;0.80;;;7.70;99.90;;;;;;5006729;28;20469;-89
2023/01/16 03:25:37;;;;;;;1.63;0.70;;;7.60;99.90;;;;;;4949929;28;20479;-87
2023/01/16 03:29:07;;;;;;;2.83;0.80;;;7.60;99.90;;;;;;4948747;28;20483;-88
2023/01/16 03:32:05;;;;;;;1.70;0.70;;;7.40;99.90;;;;;;4902761;28;20468;-85
2023/01/16 03:39:07;;;;;;;1.30;0.70;;;7.40;99.90;;;;;;4897191;29;20439;-86
2023/01/16 03:42:53;;;;;;;1.33;0.60;;;7.40;99.90;;;;;;4895771;29;20477;-87
2023/01/16 03:46:12;;;;;;;1.40;0.70;;;7.30;99.90;;;;;;4931153;28;20481;-86
2023/01/16 03:49:34;;;;;;;1.33;0.60;;;7.20;99.90;;;;;;5017331;28;20481;-86
2023/01/16 03:56:57;;;;;;;2.10;0.87;;;7.30;99.90;;;;;;5004701;28;20499;-86
2023/01/16 03:59:51;;;;;;;0.70;0.70;;;7.30;99.90;;;;;;5001202;28;20470;-89
2023/01/16 04:03:12;;;;;;;0.90;0.70;;;7.30;99.90;;;;;;4997030;28;20462;-84
2023/01/16 04:06:28;;;;;;;1.33;0.87;;;7.30;99.90;;;;;;5018241;28;20489;-87
2023/01/16 04:09:34;;;;;;;1.83;0.80;;;7.30;99.90;;;;;;5022667;28;20462;-86
2023/01/16 04:12:19;;;;;;;1.97;0.90;;;7.20;99.90;;;;;;5003743;28;20486;-86
2023/01/16 04:15:02;;;;;;;0.83;0.50;;;7.20;99.90;;;;;;5002598;28;20469;-85
2023/01/16 04:17:39;;;;;;;2.10;1.20;;;7.10;99.90;;;;;;5001741;28;20551;-88
2023/01/16 04:20:37;;;;;;;1.33;0.70;;;7.20;99.90;;;;;;5000548;28;20471;-86
2023/01/16 04:23:11;;;;;;;0.77;0.77;;;7.20;99.90;;;;;;5004078;28;20976;-87
2023/01/16 04:25:49;;;;;;;1.60;1.00;;;7.20;99.90;;;;;;5007967;28;20486;-86
2023/01/16 04:28:33;;;;;;;1.63;0.60;;;7.20;99.90;;;;;;5005439;28;20573;-87
2023/01/16 04:31:11;;;;;;;3.50;0.70;;;7.10;99.90;;;;;;5005601;28;20497;-86
2023/01/16 04:33:48;;;;;;;1.53;0.50;;;7.20;99.90;;;;;;5005352;28;20468;-85
2023/01/16 04:36:21;;;;;;;1.80;0.90;;;7.30;99.90;;;;;;5002444;28;20539;-87
2023/01/16 04:38:56;;;;;;;1.23;0.80;;;7.30;99.90;;;;;;5006898;28;20474;-86
2023/01/16 04:41:36;;;;;;;2.00;1.00;;;7.30;99.90;;;;;;5005656;28;20478;-88
2023/01/16 04:44:05;;;;;;;2.70;0.97;;;7.30;99.90;;;;;;5008064;28;20461;-88
2023/01/16 04:46:32;;;;;;;2.10;0.57;;;7.30;99.90;;;;;;5007818;28;20487;-88
2023/01/16 04:49:01;;;;;;;1.40;0.47;;;7.20;99.90;;;;;;5006472;28;20517;-87
2023/01/16 04:51:28;;;;;;;2.33;0.87;;;7.30;99.90;;;;;;5009042;28;20474;-90
2023/01/16 04:53:56;;;;;;;1.40;0.70;;;7.20;99.90;;;;;;5007568;28;20489;-88
2023/01/16 04:56:26;;;;;;;2.67;0.77;;;7.20;99.90;;;;;;5008449;28;20489;-87
2023/01/16 04:58:56;;;;;;;3.17;0.93;;;7.30;99.90;;;;;;5007350;28;20458;-88
2023/01/16 05:01:34;;;;;;;2.63;0.80;;;7.20;99.90;;;;;;5006768;28;20559;-86
2023/01/16 05:04:13;;;;;;;0.80;0.73;;;7.20;99.90;;;;;;5008445;28;20504;-86
2023/01/16 05:06:56;;;;;;;1.53;0.67;;;7.30;99.90;;;;;;5015070;28;20508;-86
2023/01/16 05:09:35;;;;;;;0.70;0.70;;;7.40;99.90;;;;;;5024207;28;20458;-85
2023/01/16 05:12:28;;;;;;;0.70;0.47;;;7.50;99.90;;;;;;5016176;28;20458;-85
2023/01/16 05:15:13;;;;;;;1.63;0.67;;;7.60;99.90;;;;;;5006416;28;20933;-89
2023/01/16 05:18:25;;;;;;;1.63;0.70;;;7.50;99.90;;;;;;5008323;28;20484;-88
2023/01/16 05:21:41;;;;;;;;;;;;;;;;;;;;;
2023/01/16 05:24:33;;;;;;;;;;;;;;;;;;;;;
2023/01/16 05:37:58;;;;;;;2.10;0.70;;;7.50;99.90;;;;;;5035399;28;20476;-84
2023/01/16 05:40:45;;;;;;;2.87;0.70;;;7.50;99.90;;;;;;5055369;28;20433;-85
2023/01/16 05:43:20;;;;;;;1.63;0.40;;;7.50;99.90;;;;;;5057407;28;20433;-88
2023/01/16 05:46:17;;;;;;;1.80;0.50;;;7.50;99.90;;;;;;5055904;28;20555;-86
2023/01/16 05:48:59;;;;;;;1.73;0.80;;;7.50;99.90;;;;;;5061538;28;20472;-85
2023/01/16 05:51:46;;;;;;;1.00;0.60;;;7.40;99.90;;;;;;5065336;28;20491;-87
2023/01/16 05:54:32;;;;;;;0.60;0.60;;;7.40;99.90;;;;;;5066261;28;20524;-87
2023/01/16 05:57:15;;;;;;;;;;;;;;;;;;;;;
2023/01/16 06:00:17;;;;;;;0.80;0.70;;;7.60;99.90;;;;;;5069441;28;20465;-86
2023/01/16 06:03:00;;;;;;;0.70;0.70;;;7.60;99.90;;;;;;5051934;28;20452;-86
2023/01/16 06:05:41;;;;;;;0.90;0.50;;;7.60;99.90;;;;;;5050517;28;20472;-87
2023/01/16 06:08:23;;;;;;;0.70;0.70;;;7.60;99.90;;;;;;5049087;28;20468;-86
2023/01/16 06:11:00;;;;;;;0.80;0.50;;;7.60;99.90;;;;;;5049809;28;20467;-86
2023/01/16 06:13:37;;;;;;;1.60;0.40;;;7.60;99.90;;;;;;5049188;28;21691;-86
2023/01/16 06:16:04;;;;;;;3.37;1.03;;;7.60;99.90;;;;;;5047180;28;20487;-87
2023/01/16 06:19:01;;;;;;;2.23;0.80;;;7.60;99.90;;;;;;5047814;28;20572;-86
2023/01/16 06:22:09;;;;;;;1.80;0.97;;;7.70;99.90;;;;;;4987143;28;20492;-84
2023/01/16 06:25:00;;;;;;;3.60;1.20;;;7.70;99.90;;;;;;4989093;28;20457;-86
2023/01/16 06:27:37;;;;;;;0.97;0.70;;;7.60;99.90;;;;;;4969936;28;21191;-88
2023/01/16 06:30:20;;;;;;;0.77;0.70;;;7.40;99.90;;;;;;5005206;28;20471;-86
2023/01/16 06:32:58;;;;;;;1.17;0.50;;;7.60;99.90;;;;;;4996143;28;20474;-89
2023/01/16 06:35:45;;;;;;;1.00;1.00;;;7.50;99.90;;;;;;4971717;28;20506;-87
2023/01/16 06:38:31;;;;;;;2.40;0.90;;;7.70;99.90;;;;;;4989969;28;20482;-86
2023/01/16 06:41:15;;;;;;;1.80;0.87;;;7.80;99.90;;;;;;4986303;28;20486;-86
2023/01/16 06:52:37;;;;;;;3.63;0.90;;;7.50;99.90;;;;;;4886028;29;20549;-86
2023/01/16 06:55:48;;;;;;;2.43;0.97;;;7.40;99.90;;;;;;4959394;28;20536;-84
2023/01/16 06:58:55;;;;;;;1.17;1.13;;;7.60;99.90;;;;;;4999281;28;20514;-88
2023/01/16 07:01:30;;;;;;;1.23;0.90;;;7.70;99.90;;;;;;5051282;28;20566;-86
2023/01/16 07:04:41;;;;;;;1.33;1.10;;;7.60;99.90;;;;;;4964952;28;20459;-87
2023/01/16 07:07:43;;;;;;;0.90;0.90;;;7.60;99.90;;;;;;4972758;28;20579;-86
2023/01/16 07:10:48;;;;;;;1.60;1.27;;;7.60;99.90;;;;;;4962467;28;20542;-86
2023/01/16 07:13:26;;;;;;;2.20;1.07;;;7.50;99.90;;;;;;4962305;28;20460;-86
2023/01/16 07:25:09;;;;;;;1.00;0.70;;;7.40;99.90;;;;;;4969539;28;20460;-87
2023/01/16 07:27:54;;;;;;;1.30;0.63;;;7.40;99.90;;;;;;4960290;28;20495;-87
2023/01/16 07:30:40;;;;;;;2.77;1.30;;;7.50;99.90;;;;;;5042939;28;20544;-86
2023/01/16 07:33:19;;;;;;;1.80;0.87;;;7.50;99.90;;;;;;5045146;28;20448;-89
2023/01/16 07:36:11;;;;;;;2.00;0.73;;;7.60;99.90;;;;;;5043678;28;20468;-89
2023/01/16 07:38:54;;;;;;;2.63;0.80;;;7.60;99.90;;;;;;5045011;28;20495;-85
2023/01/16 07:41:38;;;;;;;0.77;0.77;;;7.40;99.90;;;;;;5045676;28;20472;-88
2023/01/16 07:44:38;;;;;;;1.90;0.93;;;7.70;99.70;;;;;;5047508;28;20686;-85
2023/01/16 07:48:00;;;;;;;1.27;1.17;;;7.70;99.40;;;;;;5045309;28;20617;-86
2023/01/16 07:54:05;;;;;;;1.10;0.70;;;7.80;99.40;;;;;;5046468;28;20483;-86
2023/01/16 07:57:17;;;;;;;0.90;0.90;;;7.70;99.50;;;;;;5038388;28;20487;-86
2023/01/16 08:00:34;;;;;;;1.90;0.80;;;7.70;99.60;;;;;;4964679;28;20463;-85
2023/01/16 08:07:00;;;;;;;0.50;0.50;;;7.60;99.90;;;;;;4964227;28;20528;-88
2023/01/16 08:09:38;;;;;;;2.93;0.73;;;7.50;99.90;;;;;;4970271;28;20486;-86
2023/01/16 08:12:08;;;;;;;2.30;0.77;;;7.60;99.90;;;;;;4985191;28;20533;-86
2023/01/16 08:14:38;;;;;;;4.63;1.47;;;7.60;99.90;;;;;;4983200;28;20463;-85
2023/01/16 08:17:15;;;;;;;1.90;0.57;;;7.60;99.90;;;;;;4983314;28;20490;-87
2023/01/16 08:19:41;;;;;;;0.83;0.70;;;7.60;99.90;;;;;;4985986;28;20945;-84
2023/01/16 08:22:14;;;;;;;1.80;0.70;;;7.60;99.90;;;;;;5002942;28;20448;-88
2023/01/16 08:24:46;;;;;;;1.57;0.60;;;7.60;99.90;;;;;;5003681;28;20486;-88
2023/01/16 08:27:25;;;;;;;2.00;0.67;;;7.50;99.90;;;;;;4988067;28;20493;-87
2023/01/16 08:29:52;;;;;;;3.03;0.57;;;7.50;99.90;;;;;;5039996;28;20476;-85
2023/01/16 08:32:35;;;;;;;0.80;0.63;;;7.40;99.90;;;;;;5048034;28;20467;-88
2023/01/16 08:35:06;;;;;;;0.77;0.77;;;7.40;99.90;;;;;;5044059;28;20456;-85
2023/01/16 08:37:33;;;;;;;3.23;1.30;;;7.40;99.90;;;;;;5044145;28;20496;-87
2023/01/16 08:40:00;;;;;;;0.90;0.70;;;7.40;99.90;;;;;;5044355;28;20460;-86
2023/01/16 08:53:33;;;;;;;0.40;0.40;;;7.20;99.90;;;;;;5055132;28;20643;-86
2023/01/16 08:56:13;;;;;;;0.40;0.40;;;7.30;99.90;;;;;;5045172;28;20460;-87
2023/01/16 08:58:40;;;;;;;3.60;0.90;;;7.20;99.90;;;;;;5042226;28;20558;-87
2023/01/16 09:01:07;;;;;;;0.87;0.40;;;7.20;99.90;;;;;;5042663;28;20551;-86
2023/01/16 09:03:36;;;;;;;3.40;0.77;;;7.30;99.90;;;;;;5042850;28;20815;-86
2023/01/16 09:06:03;;;;;;;2.73;0.60;;;7.20;99.90;;;;;;5042171;28;20468;-85
2023/01/16 09:08:30;;;;;;;0.93;0.50;;;7.20;99.90;;;;;;5043043;28;20495;-84
2023/01/16 09:13:53;;;;;;;0.47;0.47;;;7.20;99.90;;;;;;5030594;28;20460;-85
2023/01/16 09:16:34;;;;;;;0.40;0.40;;;7.20;99.90;;;;;;5043151;28;20464;-86
2023/01/16 09:19:02;;;;;;;0.50;0.50;;;7.20;99.90;;;;;;5042913;28;20760;-86
2023/01/16 09:21:32;;;;;;;1.43;0.50;;;7.20;99.90;;;;;;5040178;28;20460;-87
2023/01/16 09:24:03;;;;;;;0.67;0.67;;;7.20;99.90;;;;;;5038957;28;20456;-89
2023/01/16 09:26:30;;;;;;;2.20;0.70;;;7.20;99.90;;;;;;5038479;28;20563;-87
2023/01/16 09:29:03;;;;;;;2.00;0.70;;;7.30;99.90;;;;;;5040824;28;20828;-88
2023/01/16 09:31:47;;;;;;;0.60;0.50;;;7.30;99.90;;;;;;5043285;28;21315;-86
2023/01/16 09:34:30;;;;;;;6.07;0.67;;;7.30;99.90;;;;;;5044350;28;20491;-87
2023/01/16 09:37:02;;;;;;;0.60;0.57;;;7.30;99.90;;;;;;5042270;28;20487;-88
2023/01/16 09:39:29;;;;;;;1.10;0.80;;;7.30;99.90;;;;;;5042001;28;20970;-86
2023/01/16 09:45:27;;;;;;;1.03;0.60;;;7.30;99.90;;;;;;5044611;28;20534;-88
2023/01/16 09:48:11;;;;;;;0.50;0.43;;;7.20;99.90;;;;;;5049226;28;20550;-86
2023/01/16 09:51:14;;;;;;;1.37;0.70;;;7.20;99.90;;;;;;5003825;28;20535;-86
2023/01/16 09:59:52;;;;;;;1.10;0.47;;;7.30;99.90;;;;;;5046401;28;20465;-84
2023/01/16 10:02:30;;;;;;;2.30;0.73;;;7.30;99.90;;;;;;5047494;28;20952;-84
2023/01/16 10:04:58;;;;;;;2.73;0.63;;;7.30;99.90;;;;;;5046727;28;20471;-85
2023/01/16 10:07:43;;;;;;;0.40;0.40;;;7.30;99.90;;;;;;5045696;28;20579;-85
2023/01/16 10:10:13;;;;;;;0.60;0.50;;;7.30;99.90;;;;;;5047954;28;20463;-85
2023/01/16 10:12:59;;;;;;;0.80;0.73;;;7.20;99.90;;;;;;5044872;28;20460;-85
2023/01/16 10:15:47;;;;;;;1.83;0.80;;;7.20;99.90;;;;;;5040386;28;20567;-84
2023/01/16 10:18:20;;;;;;;0.50;0.50;;;;;;;;;;5044249;28;20477;-85
2023/01/16 10:21:09;;;;;;;0.60;0.40;;;7.30;99.90;;;;;;5058037;28;20432;-88
2023/01/16 10:23:59;;;;;;;0.60;0.40;;;7.20;99.90;;;;;;5047090;28;20459;-85
2023/01/16 10:26:45;;;;;;;1.07;0.50;;;7.20;99.90;;;;;;5030332;28;20483;-86
2023/01/16 10:29:35;;;;;;;1.47;0.67;;;7.30;99.90;;;;;;5042957;28;20484;-86
2023/01/16 10:32:05;;;;;;;0.70;0.50;;;7.20;99.90;;;;;;5037711;28;20464;-87
2023/01/16 10:34:39;;;;;;;0.40;0.40;;;7.20;99.90;;;;;;5040931;28;20464;-85
2023/01/16 10:37:08;;;;;;;0.43;0.40;;;7.30;99.90;;;;;;5042212;28;20515;-88
2023/01/16 10:39:49;;;;;;;0.50;0.40;;;7.20;99.90;;;;;;5048202;28;20464;-85
2023/01/16 10:51:34;;;;;;;0.50;0.40;;;7.30;99.90;;;;;;5051343;28;20456;-85
2023/01/16 10:54:21;;;;;;;0.40;0.40;;;7.10;99.90;;;;;;5057137;28;20486;-85
2023/01/16 10:57:20;;;;;;;1.17;0.60;;;7.20;99.90;;;;;;5049267;28;20472;-85
2023/01/16 11:00:17;;;;;;;0.43;0.43;;;7.20;99.90;;;;;;5051044;28;20468;-86
2023/01/16 11:03:23;;;;;;;0.30;0.30;;;7.20;99.90;;;;;;5040503;28;20468;-86
2023/01/16 11:06:31;;;;;;;0.40;0.33;;;7.30;99.90;;;;;;5154147;22;20520;-87
2023/01/16 11:09:24;;;;;;;0.70;0.53;;;7.20;99.90;;;;;;5008349;28;20493;-88
2023/01/16 11:18:38;;;;;;;0.47;0.47;;;7.20;99.90;;;;;;5008999;28;20498;-88
2023/01/16 11:21:37;;;;;;;0.70;0.50;;;7.20;99.90;;;;;;5008653;28;20527;-89
2023/01/16 11:24:40;;;;;;;1.47;0.47;;;7.50;99.90;;;;;;5009125;28;20470;-85
2023/01/16 11:27:25;;;;;;;1.80;0.50;;;7.70;99.90;;;;;;5009375;28;20585;-88
2023/01/16 11:30:24;;;;;;;0.57;0.40;;;7.70;99.90;;;;;;5008475;28;20466;-88
2023/01/16 11:41:22;;;;;;;0.60;0.50;;;7.70;99.90;;;;;;4935492;29;20483;-89
2023/01/16 11:48:29;;;;;;;1.90;0.50;;;7.70;99.90;;;;;;4934095;29;20556;-83
2023/01/16 11:51:22;;;;;;;0.47;0.47;;;7.60;99.90;;;;;;4938207;29;20516;-86
2023/01/16 11:54:29;;;;;;;1.00;1.00;;;7.70;99.90;;;;;;4951115;28;20478;-86
2023/01/16 11:57:36;;;;;;;1.93;0.87;;;7.80;99.90;;;;;;4975925;28;20467;-86
2023/01/16 12:00:44;;;;;;;1.60;0.77;;;7.90;99.90;;;;;;5019727;28;20446;-87
2023/01/16 12:03:41;;;;;;;1.93;0.80;;;7.70;99.90;;;;;;5014243;28;20454;-86
2023/01/16 12:06:41;;;;;;;1.03;0.50;;;7.80;99.90;;;;;;5008205;28;20572;-86
2023/01/16 12:09:30;;;;;;;0.90;0.70;;;7.90;99.90;;;;;;5009042;28;20473;-88
2023/01/16 12:16:28;;;;;;;0.40;0.40;;;7.70;99.90;;;;;;5010849;28;20613;-88
2023/01/16 12:19:03;;;;;;;0.73;0.60;;;7.80;99.90;;;;;;5002673;28;20454;-86
2023/01/16 12:21:49;;;;;;;0.50;0.50;;;7.80;99.90;;;;;;5039083;28;20450;-90
2023/01/16 12:24:48;;;;;;;0.60;0.43;;;7.70;99.90;;;;;;5024924;28;20462;-87
2023/01/16 12:27:27;;;;;;;1.07;0.70;;;7.80;99.90;;;;;;5027416;28;20482;-88
2023/01/16 12:29:57;;;;;;;1.03;0.70;;;7.70;99.90;;;;;;5028556;28;20454;-86
2023/01/16 12:32:58;;;;;;;2.63;0.73;;;7.50;99.90;;;;;;5019458;28;20454;-85
2023/01/16 12:36:11;;;;;;;0.70;0.70;;;7.70;99.90;;;;;;5011846;28;20604;-87
2023/01/16 12:39:22;;;;;;;1.37;0.40;;;7.70;99.90;;;;;;5010706;28;20482;-87
2023/01/16 12:45:46;;;;;;;1.90;0.70;;;7.60;99.90;;;;;;5010204;28;20469;-86
2023/01/16 12:48:40;;;;;;;0.60;0.60;;;7.70;99.90;;;;;;5008720;28;20494;-85
2023/01/16 12:51:25;;;;;;;0.63;0.63;;;7.70;99.90;;;;;;5022562;28;20469;-85
2023/01/16 12:54:38;;;;;;;0.50;0.50;;;7.60;99.90;;;;;;5006401;28;20442;-86
2023/01/16 12:57:46;;;;;;;0.63;0.63;;;7.60;99.90;;;;;;5007407;28;20458;-86
2023/01/16 13:00:36;;;;;;;0.67;0.67;;;7.60;99.90;;;;;;5007019;28;20454;-85
2023/01/16 13:03:42;;;;;;;0.77;0.77;;;7.80;99.90;;;;;;5007273;28;20478;-85
2023/01/16 13:06:19;;;;;;;0.60;0.60;;;7.70;99.90;;;;;;5007649;28;20521;-86
2023/01/16 13:09:00;;;;;;;0.80;0.70;;;7.60;99.90;;;;;;5006650;28;20481;-86
2023/01/16 13:14:54;;;;;;;0.57;0.43;;;7.60;99.90;;;;;;5022700;28;20469;-85
2023/01/16 13:18:04;;;;;;;0.80;0.73;;;7.80;99.90;;;;;;5013497;28;20470;-85
2023/01/16 13:21:04;;;;;;;0.87;0.70;;;7.70;99.90;;;;;;5005348;28;20477;-88
2023/01/16 13:24:01;;;;;;;0.63;0.63;;;7.70;99.90;;;;;;5007984;28;20869;-84
2023/01/16 13:26:49;;;;;;;0.40;0.40;;;7.70;99.90;;;;;;5006265;28;20450;-86
2023/01/16 13:29:37;;;;;;;0.63;0.60;;;7.80;99.90;;;;;;5012575;28;20478;-84
2023/01/16 13:32:24;;;;;;;0.50;0.50;;;7.80;99.90;;;;;;5019596;28;20805;-86
2023/01/16 13:35:11;;;;;;;0.60;0.60;;;7.80;99.90;;;;;;5006949;28;20461;-84
2023/01/16 13:38:25;;;;;;;0.53;0.40;;;7.60;99.90;;;;;;5006365;28;20565;-84
2023/01/16 13:41:15;;;;;;;0.50;0.50;;;7.70;99.90;;;;;;5008275;28;20827;-85
2023/01/16 13:47:12;;;;;;;0.50;0.50;;;7.60;99.90;;;;;;5007697;28;20474;-86
2023/01/16 13:50:27;;;;;;;1.63;0.60;;;7.60;99.90;;;;;;5007469;28;20446;-84
2023/01/16 13:53:13;;;;;;;1.17;0.57;;;7.50;99.90;;;;;;5016557;28;20466;-85
2023/01/16 13:56:00;;;;;;;1.03;0.50;;;7.50;99.90;;;;;;5013513;28;21297;-85
2023/01/16 13:58:57;;;;;;;0.87;0.57;;;7.60;99.90;;;;;;5011191;28;20496;-84
2023/01/16 14:01:38;;;;;;;0.50;0.50;;;7.60;99.90;;;;;;5013389;28;21908;-87
2023/01/16 14:12:06;;;;;;;0.90;0.50;;;7.60;99.90;;;;;;4969507;28;20520;-85
2023/01/16 14:18:34;;;;;;;0.43;0.40;;;7.50;99.90;;;;;;5014279;28;21178;-86
2023/01/16 14:21:23;;;;;;;0.50;0.50;;;7.50;99.90;;;;;;5016319;28;20446;-87
2023/01/16 14:24:05;;;;;;;0.77;0.60;;;7.50;99.90;;;;;;5017862;28;20454;-89
2023/01/16 14:26:41;;;;;;;0.50;0.50;;;7.60;99.90;;;;;;5016054;28;20484;-87
2023/01/16 14:29:30;;;;;;;0.60;0.60;;;7.60;99.90;;;;;;5015339;28;20497;-87
2023/01/16 14:32:21;;;;;;;1.03;0.40;;;7.60;99.90;;;;;;4998621;28;20447;-88
2023/01/16 14:34:55;;;;;;;0.30;0.30;;;7.50;99.90;;;;;;5011896;28;20580;-88
2023/01/16 14:37:39;;;;;;;1.90;0.60;;;7.60;99.90;;;;;;5008339;28;20481;-87
2023/01/16 14:55:12;;;;;;;0.50;0.50;;;7.60;99.90;;;;;;5013909;28;20462;-87
2023/01/16 14:56:10;;;;;;;0.50;0.50;;;7.80;99.90;;;;;;5017892;28;20501;-90
2023/01/16 14:58:50;;;;;;;0.70;0.50;;;7.70;99.90;;;;;;5005047;28;20489;-87
2023/01/16 15:04:23;;;;;;;0.40;0.40;;;7.80;99.90;;;;;;5011905;28;20528;-85
2023/01/16 15:06:57;;;;;;;1.33;0.50;;;7.80;99.90;;;;;;5011397;28;20477;-87
2023/01/16 15:09:28;;;;;;;0.60;0.60;;;7.80;99.90;;;;;;4977991;28;20513;-85
2023/01/16 15:12:10;;;;;;;0.70;0.70;;;7.90;99.90;;;;;;5011459;28;20448;-87
2023/01/16 15:14:54;;;;;;;0.50;0.47;;;7.80;99.90;;;;;;5012894;28;20461;-86
2023/01/16 15:23:45;;;;;;;0.90;0.87;;;7.80;99.90;;;;;;5011427;28;20454;-88
2023/01/16 15:26:36;;;;;;;0.50;0.50;;;7.90;99.90;;;;;;5010756;28;20979;-88
2023/01/16 15:29:26;;;;;;;0.53;0.50;;;7.90;99.90;;;;;;5011065;28;20553;-87
2023/01/16 15:32:01;;;;;;;0.63;0.60;;;7.90;99.90;;;;;;5009604;28;20456;-88
2023/01/16 15:34:36;;;;;;;1.97;0.40;;;7.90;99.90;;;;;;5008616;28;20466;-86
2023/01/16 15:37:24;;;;;;;0.40;0.40;;;7.90;99.90;;;;;;4993947;28;20530;-87
2023/01/16 15:39:52;;;;;;;0.77;0.50;;;7.90;99.90;;;;;;5011369;28;20454;-88
2023/01/16 15:48:56;;;;;;;0.57;0.53;;;7.90;99.90;;;;;;5016438;28;20569;-88
2023/01/16 15:51:52;;;;;;;0.70;0.70;;;7.80;99.90;;;;;;5013297;28;20470;-86
2023/01/16 15:54:49;;;;;;;0.50;0.40;;;7.70;99.90;;;;;;5005655;28;20455;-85
2023/01/16 15:57:48;;;;;;;0.50;0.50;;;7.70;99.90;;;;;;5008589;28;20488;-86
2023/01/16 16:00:49;;;;;;;0.50;0.50;;;7.70;99.90;;;;;;5022261;28;20450;-89
2023/01/16 16:03:31;;;;;;;0.57;0.57;;;7.70;99.90;;;;;;5023032;28;20537;-88
2023/01/16 16:06:29;;;;;;;1.10;0.60;;;7.80;99.90;;;;;;5007878;28;20514;-88
2023/01/16 16:09:19;;;;;;;2.53;0.60;;;7.60;99.90;;;;;;5008595;28;21069;-85
2023/01/16 16:12:04;;;;;;;1.03;0.50;;;7.70;99.90;;;;;;5008974;28;20553;-88
2023/01/16 16:29:31;;;;;;;1.00;0.67;;;7.50;99.90;;;;;;4984436;28;20458;-87
2023/01/16 16:32:26;;;;;;;0.93;0.60;;;7.60;99.90;;;;;;4985707;28;20465;-88
2023/01/16 16:35:07;;;;;;;0.60;0.60;;;7.70;99.90;;;;;;5017885;28;20548;-85
2023/01/16 16:37:53;;;;;;;0.83;0.50;;;7.60;99.90;;;;;;5015720;28;20497;-85
2023/01/16 16:41:08;;;;;;;0.70;0.70;;;7.50;99.90;;;;;;5016385;28;20448;-86
2023/01/16 16:43:57;;;;;;;1.70;1.20;;;7.50;99.90;;;;;;5030913;28;20458;-86
2023/01/16 16:46:39;;;;;;;1.13;0.60;;;7.40;99.90;;;;;;5018364;28;20455;-86
2023/01/16 16:49:29;;;;;;;0.53;0.50;;;7.40;99.90;;;;;;5013391;28;20462;-85
2023/01/16 16:52:43;;;;;;;0.63;0.63;;;7.50;99.90;;;;;;5017225;28;20446;-86
2023/01/16 16:55:48;;;;;;;0.80;0.60;;;7.40;99.90;;;;;;5013597;28;20507;-85
2023/01/16 16:58:51;;;;;;;0.63;0.60;;;7.50;99.90;;;;;;5012060;28;20477;-88
2023/01/16 17:05:24;;;;;;;1.27;0.93;;;7.50;99.90;;;;;;5020980;28;20438;-88
2023/01/16 17:12:21;;;;;;;1.27;1.10;;;7.50;99.90;;;;;;4980355;28;20420;-86
2023/01/16 17:14:59;;;;;;;1.50;1.40;;;7.60;99.90;;;;;;4959661;28;20472;-86
2023/01/16 17:17:44;;;;;;;0.90;0.90;;;7.70;99.90;;;;;;4963804;28;20554;-87
2023/01/16 17:20:37;;;;;;;1.43;1.33;;;7.60;99.90;;;;;;4954191;28;20455;-86
2023/01/16 17:23:24;;;;;;;2.60;1.70;;;7.60;99.90;;;;;;4969303;28;20468;-83
2023/01/16 17:26:26;;;;;;;2.20;2.07;;;7.60;99.90;;;;;;4960195;28;20447;-87
2023/01/16 17:29:22;;;;;;;1.60;1.30;;;7.50;99.90;;;;;;4974471;28;20531;-87
2023/01/16 17:32:06;;;;;;;2.30;1.37;;;7.50;99.90;;;;;;4954321;28;20433;-87
2023/01/16 17:38:54;;;;;;;1.20;1.10;;;7.50;99.90;;;;;;4960758;28;20571;-88
2023/01/16 17:48:59;;;;;;;1.13;1.10;;;7.60;99.90;;;;;;5017463;28;20479;-86
2023/01/16 17:51:35;;;;;;;1.40;1.27;;;7.60;99.90;;;;;;5016559;28;20454;-87
2023/01/16 17:55:50;;;;;;;1.33;1.23;;;7.70;99.90;;;;;;5017937;28;20462;-86
2023/01/16 17:57:23;;;;;;;2.53;1.33;;;7.70;99.90;;;;;;5013826;28;20466;-86
2023/01/16 18:04:13;;;;;;;2.23;1.60;;;7.70;99.90;;;;;;5024373;28;20417;-89
2023/01/16 18:29:45;;;;;;;1.20;1.10;;;7.90;99.90;;;;;;5032684;22;20486;-87
2023/01/16 18:32:28;;;;;;;2.40;2.20;;;8.00;99.90;;;;;;5020164;28;20444;-86
2023/01/16 18:35:09;;;;;;;1.40;1.30;;;8.00;99.90;;;;;;5013044;28;20471;-88
2023/01/16 19:01:54;;;;;;;2.70;1.50;;;7.90;99.90;;;;;;4998357;28;20464;-85
2023/01/16 19:02:06;;;;;;;1.00;0.97;;;7.20;99.90;;;;;;5012245;28;20480;-88
2023/01/16 19:04:50;;;;;;;1.00;0.87;;;7.10;99.90;;;;;;5015089;28;21542;-85
2023/01/16 19:07:43;;;;;;;0.70;0.67;;;7.20;99.90;;;;;;4997372;28;20490;-87
2023/01/16 19:10:54;;;;;;;1.07;0.70;;;7.20;99.90;;;;;;4995709;28;20478;-86
2023/01/16 19:16:53;;;;;;;1.03;0.93;;;7.20;99.90;;;;;;5014768;28;20451;-86
2023/01/16 19:19:40;;;;;;;1.10;1.00;;;7.10;99.90;;;;;;5000732;28;20450;-87
2023/01/16 19:22:37;;;;;;;1.10;1.10;;;7.20;99.90;;;;;;4991903;28;20483;-86
2023/01/16 19:25:43;;;;;;;1.73;1.63;;;7.40;99.90;;;;;;4981597;28;20482;-87
2023/01/16 19:29:08;;;;;;;;;;;;;;;;;;;;;
2023/01/16 19:32:06;;;;;;;;;;;;;;;;;;;;;
2023/01/16 19:34:52;;;;;;;2.53;1.70;;;7.00;99.90;;;;;;5012803;28;20451;-85
2023/01/16 19:37:25;;;;;;;1.87;1.70;;;6.90;99.90;;;;;;4979290;28;20491;-88
2023/01/16 19:40:13;;;;;;;2.53;2.17;;;6.90;99.90;;;;;;4996572;28;20526;-88
2023/01/16 19:48:50;;;;;;;1.60;1.50;;;6.90;99.90;;;;;;5012063;28;20462;-86
2023/01/16 19:51:36;;;;;;;1.27;1.17;;;6.80;99.90;;;;;;4988355;28;20550;-85
2023/01/16 19:54:30;;;;;;;1.30;1.20;;;6.80;99.90;;;;;;4995124;28;20462;-88
2023/01/16 19:57:07;;;;;;;0.80;0.80;;;6.80;99.90;;;;;;5011963;28;20551;-88
2023/01/16 19:59:53;;;;;;;1.10;1.10;;;6.80;99.90;;;;;;4995364;28;20578;-88
2023/01/16 20:02:34;;;;;;;5.20;1.83;;;6.70;99.90;;;;;;4990094;28;20461;-86
2023/01/16 20:05:02;;;;;;;2.93;2.27;;;6.60;99.90;;;;;;5009907;28;20613;-86
2023/01/16 20:07:36;;;;;;;1.43;1.40;;;6.60;99.90;;;;;;4995443;28;20473;-86
2023/01/16 20:10:04;;;;;;;1.47;1.37;;;6.60;99.90;;;;;;5016326;28;20482;-87
2023/01/16 20:12:37;;;;;;;1.70;1.60;;;6.50;99.90;;;;;;5018218;28;20458;-87
2023/01/16 20:15:21;;;;;;;2.50;2.00;;;6.50;99.90;;;;;;5001253;28;20475;-89
2023/01/16 20:18:01;;;;;;;2.13;2.03;;;6.50;99.90;;;;;;5010481;28;20500;-86
2023/01/16 20:21:12;;;;;;;2.27;2.07;;;6.40;99.90;;;;;;5008711;28;20454;-87
2023/01/16 20:23:48;;;;;;;2.23;2.13;;;6.40;99.90;;;;;;5012867;28;20470;-84
2023/01/16 20:26:24;;;;;;;2.40;2.30;;;6.40;99.90;;;;;;4997997;28;20469;-86